Time;durP1;ratioP1;P1;durP2;ratioP2;P2;SDS_P1;SDS_P2;PMS_P1;PMS_P2;Temp;Humidity;BMP_temperature;BMP_pressure;BME280_temperature;BME280_humidity;BME280_pressure;Samples;Min_cycle;Max_cycle;Signal;HPM_P1;HPM_P2
2022/10/07 00:01:01;;;;;;;2.77;1.60;;;11.50;99.90;;;11.65;nan;101881.47;5011405;28;20662;-64
2022/10/07 00:03:29;;;;;;;1.70;1.60;;;11.50;99.90;;;11.70;nan;101884.72;4994420;28;20626;-64
2022/10/07 00:06:18;;;;;;;3.63;1.60;;;11.50;99.90;;;11.71;nan;101875.13;4994169;28;21204;-64
2022/10/07 00:08:51;;;;;;;6.37;1.87;;;11.50;99.90;;;11.74;nan;101872.31;4996381;28;20638;-64
2022/10/07 00:11:24;;;;;;;1.53;1.43;;;11.50;99.90;;;11.68;nan;101873.50;5012858;28;20641;-63
2022/10/07 00:13:55;;;;;;;2.03;1.43;;;11.50;99.90;;;11.72;nan;101876.78;5014657;28;21200;-64
2022/10/07 00:16:26;;;;;;;2.00;1.17;;;11.50;99.90;;;11.61;nan;101874.75;5007065;28;21031;-64
2022/10/07 00:18:56;;;;;;;1.83;1.73;;;11.50;99.90;;;11.70;nan;101879.50;4995943;28;20654;-64
2022/10/07 00:21:25;;;;;;;1.53;1.43;;;11.50;99.90;;;11.68;nan;101876.13;5014247;28;20674;-64
2022/10/07 00:23:52;;;;;;;11.60;2.27;;;11.50;99.90;;;11.71;nan;101873.34;5013421;28;21423;-64
2022/10/07 00:26:22;;;;;;;3.30;1.40;;;11.50;99.90;;;11.64;nan;101875.44;5014115;28;20644;-64
2022/10/07 00:28:50;;;;;;;5.93;1.53;;;11.50;99.90;;;11.58;nan;101865.28;5013370;28;20699;-64
2022/10/07 00:31:24;;;;;;;4.90;1.50;;;11.50;99.90;;;11.55;nan;101865.50;5014378;28;20632;-64
2022/10/07 00:33:53;;;;;;;1.60;1.50;;;11.40;99.90;;;11.57;nan;101857.56;4992808;28;21197;-64
2022/10/07 00:36:31;;;;;;;3.03;1.30;;;11.40;99.90;;;11.54;nan;101853.34;5014132;28;21177;-64
2022/10/07 00:39:02;;;;;;;3.10;1.57;;;11.40;99.90;;;11.62;nan;101853.78;4995725;28;20648;-64
2022/10/07 00:41:36;;;;;;;2.73;1.50;;;11.40;99.90;;;11.65;nan;101858.81;4997420;28;21264;-64
2022/10/07 00:44:31;;;;;;;3.73;2.07;;;11.40;99.90;;;11.63;nan;101846.75;5008412;28;20632;-64
2022/10/07 00:47:07;;;;;;;3.90;1.50;;;11.40;99.90;;;11.66;nan;101854.44;5010818;28;20657;-63
2022/10/07 00:49:57;;;;;;;5.33;1.67;;;11.40;99.90;;;11.67;nan;101851.75;5012301;28;20633;-64
2022/10/07 00:52:29;;;;;;;7.53;1.60;;;11.40;99.90;;;11.55;nan;101839.34;5014003;28;21148;-63
2022/10/07 00:54:58;;;;;;;1.23;1.23;;;11.40;99.90;;;11.50;nan;101838.75;4997201;28;21051;-64
2022/10/07 00:57:28;;;;;;;5.27;1.97;;;11.30;99.90;;;11.53;nan;101830.75;4980383;28;20644;-63
2022/10/07 00:59:56;;;;;;;2.30;1.50;;;11.30;99.90;;;11.36;nan;101835.25;5014249;28;20978;-64
2022/10/07 01:02:25;;;;;;;1.90;1.80;;;11.30;99.90;;;11.24;nan;101828.09;4994661;28;20669;-62
2022/10/07 01:04:53;;;;;;;4.93;1.57;;;11.20;99.90;;;11.37;nan;101831.72;4996013;28;20625;-63
2022/10/07 01:07:20;;;;;;;1.67;1.57;;;11.20;99.90;;;11.25;nan;101824.53;4995907;28;21008;-64
2022/10/07 01:09:50;;;;;;;3.27;1.27;;;11.20;99.90;;;11.33;nan;101830.22;4996778;28;20634;-64
2022/10/07 01:12:48;;;;;;;1.30;1.30;;;11.20;99.90;;;11.30;nan;101827.75;5006936;28;20630;-64
2022/10/07 01:15:33;;;;;;;2.57;1.37;;;11.20;99.90;;;11.32;nan;101825.91;5013355;28;20611;-64
2022/10/07 01:18:30;;;;;;;1.30;1.20;;;11.20;99.90;;;11.41;nan;101823.63;5014726;28;20737;-63
2022/10/07 01:21:12;;;;;;;4.50;1.37;;;11.20;99.90;;;11.51;nan;101821.31;5002734;28;20673;-64
2022/10/07 01:24:32;;;;;;;1.50;1.40;;;11.20;99.90;;;11.46;nan;101818.97;5008453;28;20952;-64
2022/10/07 01:27:21;;;;;;;3.53;1.50;;;11.30;99.90;;;11.38;nan;101817.69;5012569;28;21232;-63
2022/10/07 01:30:05;;;;;;;1.30;1.23;;;11.20;99.90;;;11.40;nan;101818.47;5007177;28;21002;-63
2022/10/07 01:32:44;;;;;;;2.10;1.10;;;11.20;99.90;;;11.32;nan;101820.66;5012655;28;20641;-63
2022/10/07 01:35:17;;;;;;;3.93;1.50;;;11.20;99.90;;;11.22;nan;101815.09;4992940;28;21201;-63
2022/10/07 01:37:51;;;;;;;3.97;1.50;;;11.10;99.90;;;11.31;nan;101805.91;5007125;28;20651;-63
2022/10/07 01:40:26;;;;;;;2.10;1.50;;;11.10;99.90;;;11.29;nan;101799.94;5014294;28;20607;-63
2022/10/07 01:42:54;;;;;;;1.13;1.03;;;11.10;99.90;;;11.27;nan;101788.72;5016038;28;20626;-65
2022/10/07 01:45:26;;;;;;;1.60;1.50;;;11.10;99.90;;;11.17;nan;101790.16;4998598;28;20645;-64
2022/10/07 01:47:53;;;;;;;1.43;1.20;;;11.10;99.90;;;11.13;nan;101786.91;5012117;28;20714;-63
2022/10/07 01:50:25;;;;;;;1.20;1.20;;;11.00;99.90;;;11.08;nan;101786.31;5032469;28;20624;-63
2022/10/07 01:53:36;;;;;;;6.00;1.40;;;11.00;99.90;;;11.20;nan;101787.41;5007953;28;21207;-63
2022/10/07 01:56:24;;;;;;;1.40;1.30;;;11.00;99.90;;;11.12;nan;101779.97;5013348;28;20617;-63
2022/10/07 01:59:31;;;;;;;2.10;1.40;;;11.00;99.90;;;11.10;nan;101776.63;5011943;28;20647;-64
2022/10/07 02:02:40;;;;;;;4.37;1.20;;;10.90;99.90;;;10.99;nan;101771.13;4995366;28;20699;-63
2022/10/07 02:05:22;;;;;;;1.53;1.43;;;10.90;99.90;;;10.99;nan;101772.94;4996124;28;20667;-64
2022/10/07 02:07:50;;;;;;;1.10;1.10;;;10.90;99.90;;;10.96;nan;101773.09;4995746;28;21228;-64
2022/10/07 02:10:33;;;;;;;1.07;1.07;;;10.90;99.90;;;11.03;nan;101777.06;5009287;28;20648;-63
2022/10/07 02:13:30;;;;;;;1.20;1.20;;;10.90;99.90;;;11.08;nan;101773.25;5002050;28;20637;-63
2022/10/07 02:16:06;;;;;;;6.43;1.37;;;10.90;99.90;;;10.93;nan;101774.09;5011763;28;20620;-63
2022/10/07 02:18:38;;;;;;;1.77;1.10;;;10.80;99.90;;;10.94;nan;101767.97;5010620;28;21201;-63
2022/10/07 02:21:08;;;;;;;1.37;1.27;;;10.80;99.90;;;10.96;nan;101766.09;5013104;28;20660;-63
2022/10/07 02:23:40;;;;;;;2.67;1.20;;;10.80;99.90;;;10.92;nan;101765.41;4994656;28;20606;-64
2022/10/07 02:26:10;;;;;;;4.53;1.27;;;10.70;99.90;;;10.89;nan;101764.75;4995590;28;20679;-64
2022/10/07 02:28:40;;;;;;;2.23;1.30;;;10.70;99.90;;;10.87;nan;101754.41;4993199;28;20641;-63
2022/10/07 02:31:09;;;;;;;2.03;1.50;;;10.70;99.90;;;10.76;nan;101761.97;5012615;28;20985;-63
2022/10/07 02:33:37;;;;;;;2.77;1.17;;;10.70;99.90;;;10.79;nan;101753.13;4993272;28;20609;-63
2022/10/07 02:36:12;;;;;;;2.03;1.40;;;10.70;99.90;;;10.67;nan;101743.34;4995190;28;20626;-63
2022/10/07 02:38:38;;;;;;;1.37;1.20;;;10.60;99.90;;;10.68;nan;101740.69;4993706;28;21179;-64
2022/10/07 02:41:35;;;;;;;3.00;1.37;;;10.60;99.90;;;10.69;nan;101742.34;5011091;28;20669;-63
2022/10/07 02:44:43;;;;;;;1.57;1.30;;;10.50;99.90;;;10.75;nan;101739.38;4999833;28;20629;-63
2022/10/07 02:47:27;;;;;;;1.33;1.23;;;10.50;99.90;;;10.75;nan;101738.56;4993090;28;20722;-63
2022/10/07 02:50:00;;;;;;;2.37;1.30;;;10.50;99.90;;;10.59;nan;101740.31;4993273;28;20633;-63
2022/10/07 02:52:30;;;;;;;1.73;1.30;;;10.40;99.90;;;10.55;nan;101744.03;4988570;28;21261;-64
2022/10/07 02:55:07;;;;;;;5.90;1.60;;;10.40;99.90;;;10.49;nan;101732.16;4996509;28;20640;-63
2022/10/07 02:57:40;;;;;;;6.17;1.30;;;10.40;99.90;;;10.50;nan;101730.41;4993260;28;20649;-63
2022/10/07 03:00:08;;;;;;;2.67;1.30;;;10.40;99.90;;;10.42;nan;101728.19;4985146;28;21190;-64
2022/10/07 03:02:55;;;;;;;1.23;1.13;;;10.40;99.90;;;10.52;nan;101736.38;5011220;28;20657;-64
2022/10/07 03:05:24;;;;;;;3.97;1.50;;;10.40;99.90;;;10.51;nan;101735.53;4994753;28;20609;-63
2022/10/07 03:08:09;;;;;;;1.37;1.27;;;10.40;99.90;;;10.53;nan;101733.69;5011022;28;21284;-64
2022/10/07 03:10:37;;;;;;;2.60;1.30;;;10.40;99.90;;;10.58;nan;101731.69;5004648;28;20639;-64
2022/10/07 03:13:04;;;;;;;1.10;1.10;;;10.40;99.90;;;10.53;nan;101723.25;4994618;28;20635;-63
2022/10/07 03:15:34;;;;;;;4.23;1.33;;;10.40;99.90;;;10.63;nan;101729.63;5011940;28;20616;-64
2022/10/07 03:18:06;;;;;;;1.30;1.10;;;10.40;99.90;;;10.58;nan;101718.63;5011389;28;20649;-63
2022/10/07 03:20:33;;;;;;;1.30;1.20;;;10.40;99.90;;;10.60;nan;101716.78;5011450;28;20649;-63
2022/10/07 03:23:00;;;;;;;1.73;1.30;;;10.40;99.90;;;10.54;nan;101719.69;5012071;28;21075;-63
2022/10/07 03:25:27;;;;;;;4.90;1.60;;;10.40;99.90;;;10.55;nan;101721.38;4992967;28;20630;-63
2022/10/07 03:27:55;;;;;;;1.30;1.20;;;10.40;99.90;;;10.41;nan;101710.88;5024253;22;21051;-65
2022/10/07 03:30:22;;;;;;;1.37;1.20;;;10.40;99.90;;;10.46;nan;101705.38;4976003;28;21015;-65
2022/10/07 03:32:53;;;;;;;2.97;1.40;;;10.30;99.90;;;10.46;nan;101707.97;5009607;28;21045;-65
2022/10/07 03:35:23;;;;;;;3.27;1.17;;;10.30;99.90;;;10.46;nan;101703.63;5012584;28;21214;-64
2022/10/07 03:37:50;;;;;;;7.43;1.90;;;10.30;99.90;;;10.47;nan;101705.31;5030244;28;21247;-65
2022/10/07 03:40:17;;;;;;;3.80;1.40;;;10.30;99.90;;;10.27;nan;101697.72;5022615;28;20648;-65
2022/10/07 03:42:44;;;;;;;4.43;1.53;;;10.30;99.90;;;10.23;nan;101696.19;5011794;28;21124;-64
2022/10/07 03:45:11;;;;;;;6.40;1.93;;;10.20;99.90;;;10.19;nan;101693.81;5009845;28;20640;-65
2022/10/07 03:47:41;;;;;;;2.10;1.43;;;10.20;99.90;;;10.13;nan;101695.00;4996185;28;20862;-65
2022/10/07 03:50:11;;;;;;;6.60;1.43;;;10.10;99.90;;;10.09;nan;101701.28;5006513;28;20620;-65
2022/10/07 03:52:38;;;;;;;1.63;1.50;;;10.10;99.90;;;10.12;nan;101698.53;5007178;28;20640;-64
2022/10/07 03:55:06;;;;;;;6.30;1.70;;;10.10;99.90;;;10.19;nan;101697.28;5012517;28;20638;-62
2022/10/07 04:00:26;;;;;;;2.60;1.20;;;10.10;99.90;;;10.17;nan;101706.97;5010237;28;20625;-62
2022/10/07 04:02:53;;;;;;;1.73;1.57;;;10.10;99.90;;;10.20;nan;101696.34;4992323;28;20723;-62
2022/10/07 04:05:20;;;;;;;2.43;1.67;;;10.10;99.90;;;10.20;nan;101695.53;5010443;28;20671;-66
2022/10/07 04:07:49;;;;;;;4.67;1.80;;;10.10;99.90;;;10.05;nan;101690.16;4988617;28;21276;-59
2022/10/07 04:10:20;;;;;;;3.03;1.50;;;10.00;99.90;;;10.06;nan;101688.41;4983240;28;20631;-64
2022/10/07 04:12:47;;;;;;;4.70;1.50;;;10.00;99.90;;;10.06;nan;101683.19;5010596;28;20651;-64
2022/10/07 04:15:14;;;;;;;1.90;1.60;;;10.00;99.90;;;10.03;nan;101684.19;5009724;28;20648;-65
2022/10/07 04:17:43;;;;;;;3.30;1.57;;;10.00;99.90;;;10.11;nan;101682.03;5010053;28;20694;-63
2022/10/07 04:20:13;;;;;;;1.60;1.30;;;10.00;99.90;;;10.01;nan;101680.81;4991669;28;20639;-65
2022/10/07 04:22:40;;;;;;;2.73;1.70;;;10.00;99.90;;;9.98;nan;101681.00;5009797;28;20675;-65
2022/10/07 04:27:57;;;;;;;3.13;1.33;;;10.00;99.90;;;10.12;nan;101678.50;5010333;28;20659;-64
2022/10/07 04:30:27;;;;;;;5.60;1.60;;;10.00;99.90;;;10.09;nan;101681.25;5010214;28;20636;-65
2022/10/07 04:32:54;;;;;;;1.30;1.20;;;10.00;99.90;;;10.02;nan;101673.84;5010406;28;20670;-65
2022/10/07 04:35:22;;;;;;;1.93;1.70;;;10.00;99.90;;;10.06;nan;101670.13;5011035;28;21257;-65
2022/10/07 04:37:50;;;;;;;3.17;1.47;;;10.00;99.90;;;10.13;nan;101661.09;5011126;28;21297;-64
2022/10/07 04:40:19;;;;;;;2.67;1.40;;;10.00;99.90;;;10.12;nan;101659.41;5010650;28;20644;-64
2022/10/07 04:45:34;;;;;;;4.30;1.60;;;10.00;99.90;;;10.08;nan;101663.91;5013713;28;20710;-64
2022/10/07 04:48:06;;;;;;;5.53;1.60;;;10.00;99.90;;;10.08;nan;101656.09;5013059;28;20675;-64
2022/10/07 04:50:37;;;;;;;3.90;1.83;;;10.00;99.90;;;10.08;nan;101660.47;4996230;28;20628;-65
2022/10/07 04:53:09;;;;;;;1.83;1.43;;;10.00;99.90;;;10.17;nan;101651.34;4996054;28;20636;-64
2022/10/07 04:55:46;;;;;;;1.43;1.30;;;10.00;99.90;;;10.10;nan;101650.78;4997516;28;20633;-64
2022/10/07 04:58:14;;;;;;;6.73;1.63;;;10.00;99.90;;;10.14;nan;101653.19;5012752;28;20659;-64
2022/10/07 05:00:44;;;;;;;6.33;1.40;;;10.00;99.90;;;10.18;nan;101647.81;5013804;28;20685;-65
2022/10/07 05:03:17;;;;;;;5.17;1.60;;;10.00;99.90;;;10.16;nan;101647.06;5015370;28;20684;-64
2022/10/07 05:05:47;;;;;;;3.50;1.47;;;10.10;99.90;;;10.22;nan;101642.34;5032883;28;21199;-63
2022/10/07 05:08:18;;;;;;;5.70;1.60;;;10.10;99.90;;;10.32;nan;101642.69;5024108;28;20660;-63
2022/10/07 05:10:45;;;;;;;1.70;1.60;;;10.10;99.90;;;10.32;nan;101640.91;5014502;28;20666;-63
2022/10/07 05:13:15;;;;;;;2.13;1.57;;;10.10;99.90;;;10.27;nan;101642.09;5013360;28;20629;-63
2022/10/07 05:15:52;;;;;;;1.77;1.50;;;10.10;99.90;;;10.32;nan;101643.53;4995551;28;20697;-63
2022/10/07 05:18:21;;;;;;;5.23;1.50;;;10.10;99.90;;;10.33;nan;101641.78;4992367;28;20683;-64
2022/10/07 05:20:48;;;;;;;3.77;1.47;;;10.20;99.90;;;10.28;nan;101647.25;4993492;28;20633;-63
2022/10/07 05:23:18;;;;;;;2.70;1.40;;;10.10;99.90;;;10.21;nan;101639.81;4987499;28;20681;-64
2022/10/07 05:26:00;;;;;;;1.87;1.57;;;10.10;99.90;;;10.18;nan;101640.81;5032952;28;20628;-63
2022/10/07 05:28:27;;;;;;;1.73;1.57;;;10.00;99.90;;;10.18;nan;101637.38;5006240;28;20668;-64
2022/10/07 05:31:06;;;;;;;7.40;2.20;;;10.10;99.90;;;10.15;nan;101641.00;5013302;28;21224;-63
2022/10/07 05:33:34;;;;;;;2.80;1.53;;;10.00;99.90;;;10.16;nan;101642.66;5003957;28;21035;-64
2022/10/07 05:36:02;;;;;;;2.80;1.67;;;10.00;99.90;;;10.17;nan;101635.69;4995163;28;21000;-63
2022/10/07 05:38:29;;;;;;;4.07;1.63;;;10.00;99.90;;;10.27;nan;101635.09;5011864;28;20872;-63
2022/10/07 05:40:58;;;;;;;7.50;1.90;;;10.10;99.90;;;10.24;nan;101635.28;5013198;28;20997;-64
2022/10/07 05:43:27;;;;;;;3.90;2.13;;;10.10;99.90;;;10.20;nan;101628.53;5012820;28;20664;-63
2022/10/07 05:46:04;;;;;;;7.80;2.07;;;10.10;99.90;;;10.32;nan;101627.03;5013674;28;20657;-64
2022/10/07 05:48:32;;;;;;;3.03;1.87;;;10.10;99.90;;;10.30;nan;101624.50;5011909;28;21034;-64
2022/10/07 05:51:07;;;;;;;4.60;2.00;;;10.10;99.90;;;10.41;nan;101630.00;5013341;28;20632;-64
2022/10/07 05:53:34;;;;;;;3.10;1.80;;;10.20;99.90;;;10.50;nan;101628.63;5012344;28;20659;-63
2022/10/07 05:56:11;;;;;;;2.83;1.80;;;10.20;99.90;;;10.44;nan;101621.97;5013226;28;20621;-63
2022/10/07 05:58:38;;;;;;;2.03;1.93;;;10.30;99.90;;;10.55;nan;101618.75;5012560;28;20683;-63
2022/10/07 06:01:10;;;;;;;1.47;1.37;;;10.30;99.90;;;10.42;nan;101629.03;5011657;28;21013;-64
2022/10/07 06:03:41;;;;;;;10.03;1.70;;;10.30;99.90;;;10.58;nan;101621.22;4994000;28;20668;-63
2022/10/07 06:06:08;;;;;;;2.87;1.83;;;10.40;99.90;;;10.70;nan;101612.69;4995032;28;20647;-64
2022/10/07 06:08:35;;;;;;;3.07;2.03;;;10.40;99.90;;;10.85;nan;101614.41;5011812;28;21006;-63
2022/10/07 06:13:53;;;;;;;1.83;1.70;;;10.60;99.90;;;11.06;nan;101617.53;5009482;28;20641;-63
2022/10/07 06:16:22;;;;;;;2.00;1.90;;;10.70;99.90;;;11.17;nan;101617.75;5011359;28;20639;-63
2022/10/07 06:18:51;;;;;;;6.83;1.70;;;10.80;99.90;;;11.24;nan;101619.09;4994249;28;20669;-64
2022/10/07 06:21:19;;;;;;;1.63;1.53;;;10.90;99.90;;;11.41;nan;101630.22;5012528;28;20684;-63
2022/10/07 06:23:50;;;;;;;2.80;1.83;;;11.00;99.90;;;11.62;nan;101633.31;5012982;28;20673;-63
2022/10/07 06:26:18;;;;;;;5.37;2.13;;;11.10;99.90;;;12.29;nan;101640.47;5012912;28;21040;-64
2022/10/07 06:28:46;;;;;;;3.57;1.90;;;11.40;99.90;;;12.93;nan;101622.31;5011522;28;20650;-61
2022/10/07 06:31:21;;;;;;;5.20;1.70;;;11.80;99.90;;;13.66;nan;101627.84;5011228;28;20633;-63
2022/10/07 06:33:49;;;;;;;2.87;2.10;;;12.30;99.90;;;14.06;nan;101631.16;5011117;28;20991;-64
2022/10/07 06:36:17;;;;;;;2.80;2.30;;;12.70;99.90;;;14.12;nan;101630.75;5012698;28;20617;-64
2022/10/07 06:38:46;;;;;;;2.60;1.57;;;12.90;99.90;;;14.31;nan;101639.00;5011565;28;20654;-64
2022/10/07 06:41:13;;;;;;;3.13;1.97;;;13.20;99.90;;;14.09;nan;101630.94;5003379;28;20643;-63
2022/10/07 06:43:41;;;;;;;2.07;1.90;;;13.20;99.90;;;13.77;nan;101625.34;5011672;28;20662;-64
2022/10/07 06:46:13;;;;;;;2.33;1.90;;;13.10;99.90;;;13.58;nan;101632.78;5011712;28;21193;-64
2022/10/07 06:48:41;;;;;;;2.00;1.90;;;13.00;99.90;;;13.41;nan;101623.47;5016555;28;20983;-63
2022/10/07 06:51:14;;;;;;;2.53;2.33;;;13.00;99.90;;;13.35;nan;101630.91;5011910;28;21014;-63
2022/10/07 06:53:41;;;;;;;9.20;2.50;;;12.90;99.90;;;13.80;nan;101627.72;5010719;28;21198;-63
2022/10/07 06:56:11;;;;;;;3.47;2.27;;;13.00;99.90;;;14.63;nan;101633.09;5006043;28;20658;-64
2022/10/07 06:58:38;;;;;;;5.33;2.00;;;13.50;99.90;;;15.60;nan;101638.09;5023026;28;20665;-64
2022/10/07 07:01:05;;;;;;;4.03;2.00;;;14.10;99.90;;;15.99;nan;101629.72;4981972;28;20642;-64
2022/10/07 07:03:32;;;;;;;5.17;2.30;;;14.70;99.90;;;16.64;nan;101638.47;5010247;28;20676;-63
2022/10/07 07:06:00;;;;;;;3.50;2.37;;;15.00;99.90;;;17.16;nan;101636.81;5011030;28;20625;-63
2022/10/07 07:08:30;;;;;;;3.63;2.07;;;15.40;99.90;;;17.14;nan;101636.97;5009585;28;20735;-63
2022/10/07 07:11:34;;;;;;;6.90;2.50;;;15.70;99.90;;;17.16;nan;101634.19;5003297;28;20640;-61
2022/10/07 07:13:55;;;;;;;5.03;2.40;;;15.80;99.90;;;17.01;nan;101631.03;4997388;28;20621;-64
2022/10/07 07:16:25;;;;;;;4.63;2.33;;;15.90;99.90;;;16.96;nan;101633.19;5012045;28;21174;-63
2022/10/07 07:18:58;;;;;;;3.57;2.10;;;15.90;99.90;;;17.60;nan;101631.28;5007396;28;20670;-63
2022/10/07 07:21:27;;;;;;;2.63;2.10;;;16.20;99.90;;;18.99;nan;101637.34;5006004;28;21220;-64
2022/10/07 07:23:55;;;;;;;6.17;2.83;;;17.00;99.90;;;20.32;nan;101633.47;4992949;28;20669;-64
2022/10/07 07:26:23;;;;;;;4.97;2.57;;;17.90;99.90;;;20.40;nan;101636.19;5009257;28;20626;-64
2022/10/07 07:29:10;;;;;;;4.57;2.37;;;18.50;99.90;;;20.78;nan;101632.44;4992211;28;20660;-64
2022/10/07 07:31:37;;;;;;;2.40;2.13;;;18.90;99.90;;;21.96;nan;101633.63;4988947;28;20645;-64
2022/10/07 07:34:10;;;;;;;4.07;2.63;;;19.60;99.90;;;22.53;nan;101634.66;5006477;28;20641;-64
2022/10/07 07:36:43;;;;;;;2.70;2.47;;;20.00;99.00;;;23.05;nan;101634.22;4993046;28;20638;-64
2022/10/07 07:39:14;;;;;;;3.03;2.73;;;20.50;97.90;;;22.58;nan;101630.50;5009274;28;20638;-64
2022/10/07 07:41:45;;;;;;;3.07;2.80;;;20.70;96.50;;;23.01;nan;101632.06;5009782;28;21192;-64
2022/10/07 07:44:15;;;;;;;7.57;3.10;;;20.90;96.10;;;23.99;nan;101628.19;4992881;28;21236;-64
2022/10/07 07:46:52;;;;;;;5.60;2.30;;;21.40;94.80;;;25.42;nan;101623.91;5011012;28;20633;-64
2022/10/07 07:49:22;;;;;;;4.43;2.60;;;22.00;93.70;;;25.74;nan;101631.56;4993734;28;20630;-64
2022/10/07 07:51:49;;;;;;;3.67;2.43;;;22.70;91.60;;;25.89;nan;101625.22;5008393;28;20621;-64
2022/10/07 07:54:16;;;;;;;4.63;2.90;;;23.20;90.40;;;25.96;nan;101626.09;5009167;28;20994;-64
2022/10/07 07:56:43;;;;;;;4.67;2.60;;;23.10;89.30;;;26.39;nan;101623.56;4990402;28;20633;-64
2022/10/07 07:59:10;;;;;;;5.20;3.80;;;23.30;88.30;;;25.30;nan;101623.47;5008615;28;20642;-64
2022/10/07 08:01:37;;;;;;;5.50;2.83;;;23.00;86.60;;;25.77;nan;101620.53;4986215;28;20667;-64
2022/10/07 08:04:05;;;;;;;9.10;3.37;;;23.00;87.20;;;25.72;nan;101612.22;5004492;28;21334;-64
2022/10/07 08:06:33;;;;;;;2.97;2.77;;;23.00;86.60;;;25.67;nan;101626.13;5002592;28;20652;-64
2022/10/07 08:09:00;;;;;;;3.53;3.07;;;22.90;86.80;;;26.21;nan;101615.97;5007125;28;20658;-64
2022/10/07 08:11:28;;;;;;;6.00;2.77;;;23.00;87.30;;;27.65;nan;101618.09;5010243;28;20622;-65
2022/10/07 08:13:55;;;;;;;5.27;2.97;;;23.70;84.80;;;29.56;nan;101619.31;4991100;28;20641;-65
2022/10/07 08:16:26;;;;;;;3.43;3.00;;;24.70;81.40;;;31.25;nan;101614.84;5002711;28;21229;-65
2022/10/07 08:18:55;;;;;;;3.07;2.77;;;26.00;77.80;;;32.88;nan;101614.63;5012424;28;20844;-64
2022/10/07 08:21:25;;;;;;;3.63;2.73;;;27.20;73.40;;;34.10;nan;101620.91;5012867;28;20634;-65
2022/10/07 08:23:56;;;;;;;7.83;3.70;;;28.10;69.40;;;34.92;nan;101620.25;5015387;28;20723;-65
2022/10/07 08:26:28;;;;;;;4.50;2.83;;;29.00;66.10;;;35.65;nan;101621.91;5008622;28;20687;-64
2022/10/07 08:28:56;;;;;;;5.60;3.47;;;29.80;63.10;;;34.43;nan;101604.75;4991892;28;20792;-65
2022/10/07 08:31:27;;;;;;;4.00;2.80;;;29.90;60.30;;;35.00;nan;101610.91;5007361;28;20645;-64
2022/10/07 08:34:00;;;;;;;4.80;2.73;;;29.90;60.00;;;35.05;nan;101609.06;5008305;28;20637;-65
2022/10/07 08:36:31;;;;;;;4.20;3.37;;;30.10;58.80;;;35.83;nan;101602.56;5012572;28;20644;-65
2022/10/07 08:38:59;;;;;;;3.83;3.03;;;30.50;58.30;;;35.73;nan;101599.75;5008678;28;20649;-66
2022/10/07 08:41:46;;;;;;;6.07;3.30;;;30.70;56.70;;;34.60;nan;101588.53;4991996;28;21051;-65
2022/10/07 08:44:16;;;;;;;5.97;3.43;;;30.20;56.60;;;33.36;nan;101586.56;5013430;28;20669;-64
2022/10/07 08:47:01;;;;;;;9.23;3.33;;;29.50;57.00;;;32.09;nan;101582.56;4983639;28;20629;-64
2022/10/07 08:50:08;;;;;;;5.93;3.20;;;28.80;57.90;;;31.06;nan;101577.28;4987064;28;20694;-64
2022/10/07 08:52:50;;;;;;;5.60;3.00;;;28.10;58.70;;;30.60;nan;101569.56;5012654;28;21029;-65
2022/10/07 08:55:47;;;;;;;4.13;2.90;;;27.50;59.90;;;30.87;nan;101568.34;5009401;28;20634;-64
2022/10/07 08:58:37;;;;;;;3.37;2.53;;;27.20;60.80;;;31.99;nan;101570.66;4995614;28;20733;-64
2022/10/07 09:01:26;;;;;;;3.10;2.40;;;27.40;60.70;;;33.09;nan;101564.59;4990883;28;21085;-66
2022/10/07 09:04:13;;;;;;;3.93;2.27;;;27.90;60.10;;;34.23;nan;101569.16;5012910;28;20672;-64
2022/10/07 09:07:01;;;;;;;3.03;2.60;;;28.50;59.00;;;35.40;nan;101572.66;5011713;28;20641;-67
2022/10/07 09:09:38;;;;;;;4.40;4.00;;;29.30;57.90;;;36.66;nan;101576.81;4991797;28;20998;-64
2022/10/07 09:12:15;;;;;;;5.23;4.77;;;30.20;56.50;;;36.95;nan;101578.16;5011617;28;20621;-66
2022/10/07 09:14:45;;;;;;;5.13;3.40;;;30.90;55.70;;;37.35;nan;101559.38;4996388;28;21258;-65
2022/10/07 09:17:31;;;;;;;6.93;2.87;;;31.40;54.80;;;38.38;nan;101558.31;4996052;28;20665;-66
2022/10/07 09:20:16;;;;;;;4.20;2.50;;;32.10;53.30;;;38.09;nan;101557.16;4996678;28;20625;-64
2022/10/07 09:22:53;;;;;;;2.77;2.60;;;32.60;52.30;;;38.06;nan;101560.41;4996355;28;20621;-65
2022/10/07 09:25:27;;;;;;;5.77;2.60;;;32.80;51.70;;;37.08;nan;101548.56;4998671;28;20637;-65
2022/10/07 09:27:54;;;;;;;6.70;2.90;;;32.70;51.50;;;36.47;nan;101552.75;5061142;22;20704;-66
2022/10/07 09:30:23;;;;;;;3.03;2.40;;;32.40;51.50;;;36.43;nan;101550.81;5029789;28;20637;-68
2022/10/07 09:32:53;;;;;;;6.87;2.60;;;32.20;51.60;;;36.32;nan;101541.72;4999298;28;20628;-66
2022/10/07 09:35:26;;;;;;;2.60;2.43;;;31.70;51.70;;;36.34;nan;101545.00;5007707;28;20625;-68
2022/10/07 09:37:59;;;;;;;5.53;3.03;;;31.70;51.80;;;35.36;nan;101528.13;4997426;28;20718;-68
2022/10/07 09:40:26;;;;;;;3.47;2.60;;;31.30;52.30;;;34.62;nan;101524.88;5012130;28;20612;-67
2022/10/07 09:42:54;;;;;;;4.43;2.73;;;30.90;52.40;;;34.71;nan;101520.69;5012284;28;20634;-66
2022/10/07 09:45:27;;;;;;;5.53;2.77;;;30.60;52.30;;;34.17;nan;101518.66;5007041;28;20624;-66
2022/10/07 09:48:06;;;;;;;5.17;2.50;;;30.20;53.00;;;34.23;nan;101523.09;5010522;28;21201;-66
2022/10/07 09:50:40;;;;;;;3.40;2.80;;;30.20;53.40;;;34.27;nan;101524.25;5002642;28;21271;-66
2022/10/07 09:53:23;;;;;;;3.37;2.53;;;30.10;53.60;;;34.73;nan;101518.56;5013102;28;21000;-67
2022/10/07 09:55:54;;;;;;;5.10;2.67;;;30.20;53.50;;;34.92;nan;101519.91;5032393;28;20624;-66
2022/10/07 09:58:31;;;;;;;3.20;2.27;;;30.50;53.00;;;34.37;nan;101516.31;5032234;28;20661;-65
2022/10/07 10:01:00;;;;;;;3.87;2.60;;;30.60;52.40;;;34.07;nan;101497.66;5032382;28;20670;-66
2022/10/07 10:03:30;;;;;;;2.10;1.90;;;30.50;52.40;;;34.18;nan;101514.91;5029790;28;20691;-66
2022/10/07 10:06:01;;;;;;;2.40;2.20;;;30.50;52.50;;;34.61;nan;101498.81;4994850;28;20627;-68
2022/10/07 10:08:39;;;;;;;5.47;2.57;;;30.70;52.40;;;34.94;nan;101506.94;4994832;28;20641;-67
2022/10/07 10:11:18;;;;;;;2.80;2.57;;;30.90;51.90;;;33.99;nan;101499.91;5011384;28;20636;-66
2022/10/07 10:13:49;;;;;;;3.33;2.53;;;30.60;51.90;;;33.91;nan;101497.56;5016761;28;20632;-65
2022/10/07 10:16:33;;;;;;;3.67;2.67;;;30.20;52.80;;;34.11;nan;101497.97;5020696;28;20632;-66
2022/10/07 10:19:03;;;;;;;3.20;2.50;;;30.10;53.20;;;34.15;nan;101496.41;5004978;28;20668;-67
2022/10/07 10:21:39;;;;;;;2.90;2.40;;;30.00;53.00;;;34.00;nan;101486.16;5031341;28;20641;-65
2022/10/07 10:24:16;;;;;;;9.50;2.80;;;29.90;52.90;;;33.88;nan;101487.25;5031612;28;20664;-65
2022/10/07 10:27:15;;;;;;;6.43;2.67;;;29.70;53.20;;;33.00;nan;101484.91;5031945;28;21234;-65
2022/10/07 10:29:55;;;;;;;4.90;2.77;;;29.20;53.80;;;31.82;nan;101484.06;5017144;28;21269;-65
2022/10/07 10:32:48;;;;;;;7.13;2.67;;;28.50;54.50;;;30.37;nan;101473.19;5006808;28;20624;-64
2022/10/07 10:35:27;;;;;;;3.73;2.20;;;27.70;55.80;;;29.34;nan;101461.97;5026609;28;20641;-67
2022/10/07 10:38:17;;;;;;;6.33;2.60;;;26.80;57.00;;;27.73;nan;101460.75;5014198;28;21008;-65
2022/10/07 10:40:59;;;;;;;2.67;2.20;;;25.90;58.10;;;26.78;nan;101453.47;5010944;28;21003;-67
2022/10/07 10:44:16;;;;;;;3.87;2.40;;;25.20;58.90;;;25.60;nan;101451.47;5013428;28;20670;-66
2022/10/07 10:47:06;;;;;;;3.40;2.00;;;24.40;60.80;;;24.67;nan;101440.53;5021510;28;21100;-65
2022/10/07 10:49:59;;;;;;;2.77;2.13;;;23.50;62.20;;;24.03;nan;101434.91;5007362;28;21196;-66
2022/10/07 10:52:44;;;;;;;8.97;2.30;;;22.90;63.80;;;23.53;nan;101438.06;5018406;28;21182;-65
2022/10/07 10:55:17;;;;;;;3.63;2.47;;;22.40;65.10;;;23.09;nan;101419.91;5006221;28;20602;-64
2022/10/07 10:58:14;;;;;;;4.37;2.30;;;22.00;66.00;;;22.74;nan;101419.53;5021111;28;20650;-65
2022/10/07 11:00:53;;;;;;;4.30;2.00;;;21.70;66.90;;;22.42;nan;101423.84;5018305;28;21192;-65
2022/10/07 11:04:03;;;;;;;4.23;2.83;;;21.30;68.20;;;22.33;nan;101416.06;5025037;28;20660;-65
2022/10/07 11:06:34;;;;;;;4.63;2.07;;;21.10;69.20;;;22.33;nan;101406.28;5022090;28;20622;-67